sensor_id;sensor_type;location;lat;lon;timestamp;P1;durP1;ratioP1;P2;durP2;ratioP2
58697;SDS011;44475;53.206;-6.106;2024-01-15T14:49:49;5.00;;;1.60;;
58697;SDS011;44475;53.206;-6.106;2024-01-15T14:52:16;3.25;;;1.50;;
58697;SDS011;44475;53.206;-6.106;2024-01-15T14:54:42;3.80;;;1.70;;
58697;SDS011;44475;53.206;-6.106;2024-01-15T14:57:08;4.28;;;1.60;;
58697;SDS011;44475;53.206;-6.106;2024-01-15T14:59:35;2.88;;;1.67;;
58697;SDS011;44475;53.206;-6.106;2024-01-15T15:02:01;3.45;;;1.60;;
58697;SDS011;44475;53.206;-6.106;2024-01-15T15:04:28;2.35;;;1.52;;
58697;SDS011;44475;53.206;-6.106;2024-01-15T15:06:55;4.72;;;1.75;;
58697;SDS011;44475;53.206;-6.106;2024-01-15T15:09:22;3.40;;;1.70;;
58697;SDS011;44475;53.206;-6.106;2024-01-15T15:11:48;3.13;;;1.67;;
58697;SDS011;44475;53.206;-6.106;2024-01-15T15:14:14;3.35;;;1.65;;
58697;SDS011;44475;53.206;-6.106;2024-01-15T15:16:41;3.20;;;1.70;;
58697;SDS011;44475;53.206;-6.106;2024-01-15T15:19:07;2.10;;;1.50;;
58697;SDS011;44475;53.206;-6.106;2024-01-15T15:21:33;3.92;;;1.90;;
58697;SDS011;44475;53.206;-6.106;2024-01-15T15:24:00;4.65;;;1.60;;
58697;SDS011;44475;53.206;-6.106;2024-01-15T15:26:26;3.15;;;1.70;;
58697;SDS011;44475;53.206;-6.106;2024-01-15T15:28:53;2.67;;;1.70;;
58697;SDS011;44475;53.206;-6.106;2024-01-15T15:31:19;3.17;;;1.70;;
58697;SDS011;44475;53.206;-6.106;2024-01-15T15:33:45;2.63;;;1.58;;
58697;SDS011;44475;53.206;-6.106;2024-01-15T15:36:12;3.25;;;1.80;;
58697;SDS011;44475;53.206;-6.106;2024-01-15T15:38:38;3.33;;;1.60;;
58697;SDS011;44475;53.206;-6.106;2024-01-15T15:41:04;3.45;;;1.65;;
58697;SDS011;44475;53.206;-6.106;2024-01-15T15:43:30;3.17;;;1.92;;
58697;SDS011;44475;53.206;-6.106;2024-01-15T15:45:57;4.45;;;1.83;;
58697;SDS011;44475;53.206;-6.106;2024-01-15T15:48:23;6.68;;;1.90;;
58697;SDS011;44475;53.206;-6.106;2024-01-15T15:50:50;2.63;;;1.70;;
58697;SDS011;44475;53.206;-6.106;2024-01-15T15:53:18;3.88;;;1.80;;
58697;SDS011;44475;53.206;-6.106;2024-01-15T15:55:45;3.25;;;1.60;;
58697;SDS011;44475;53.206;-6.106;2024-01-15T15:58:11;2.80;;;1.88;;
58697;SDS011;44475;53.206;-6.106;2024-01-15T16:00:38;3.47;;;1.90;;
58697;SDS011;44475;53.206;-6.106;2024-01-15T16:03:04;3.63;;;1.83;;
58697;SDS011;44475;53.206;-6.106;2024-01-15T16:05:30;3.10;;;1.70;;
58697;SDS011;44475;53.206;-6.106;2024-01-15T16:07:56;4.72;;;1.80;;
58697;SDS011;44475;53.206;-6.106;2024-01-15T16:10:23;3.10;;;1.80;;
58697;SDS011;44475;53.206;-6.106;2024-01-15T16:12:49;2.95;;;1.77;;
58697;SDS011;44475;53.206;-6.106;2024-01-15T16:15:22;3.15;;;1.80;;
58697;SDS011;44475;53.206;-6.106;2024-01-15T16:17:48;3.63;;;1.77;;
58697;SDS011;44475;53.206;-6.106;2024-01-15T16:20:16;2.70;;;1.80;;
58697;SDS011;44475;53.206;-6.106;2024-01-15T16:22:43;2.92;;;1.80;;
58697;SDS011;44475;53.206;-6.106;2024-01-15T16:25:10;6.13;;;2.13;;
58697;SDS011;44475;53.206;-6.106;2024-01-15T16:27:36;5.13;;;1.90;;
58697;SDS011;44475;53.206;-6.106;2024-01-15T16:30:03;6.15;;;1.90;;
58697;SDS011;44475;53.206;-6.106;2024-01-15T16:32:29;6.60;;;2.28;;
58697;SDS011;44475;53.206;-6.106;2024-01-15T16:34:56;7.63;;;2.28;;
58697;SDS011;44475;53.206;-6.106;2024-01-15T16:37:22;8.40;;;1.90;;
58697;SDS011;44475;53.206;-6.106;2024-01-15T16:39:49;3.58;;;2.10;;
58697;SDS011;44475;53.206;-6.106;2024-01-15T16:42:15;5.88;;;2.05;;
58697;SDS011;44475;53.206;-6.106;2024-01-15T16:44:41;4.18;;;2.17;;
58697;SDS011;44475;53.206;-6.106;2024-01-15T16:47:08;2.80;;;1.75;;
58697;SDS011;44475;53.206;-6.106;2024-01-15T16:49:34;4.57;;;2.00;;
58697;SDS011;44475;53.206;-6.106;2024-01-15T16:52:01;4.30;;;1.90;;
58697;SDS011;44475;53.206;-6.106;2024-01-15T16:54:30;3.42;;;1.85;;
58697;SDS011;44475;53.206;-6.106;2024-01-15T16:56:58;7.78;;;2.30;;
58697;SDS011;44475;53.206;-6.106;2024-01-15T16:59:24;4.22;;;2.10;;
58697;SDS011;44475;53.206;-6.106;2024-01-15T17:01:51;3.92;;;2.03;;
58697;SDS011;44475;53.206;-6.106;2024-01-15T17:04:17;7.38;;;2.42;;
58697;SDS011;44475;53.206;-6.106;2024-01-15T17:06:43;6.60;;;2.40;;
58697;SDS011;44475;53.206;-6.106;2024-01-15T17:09:09;7.30;;;2.42;;
58697;SDS011;44475;53.206;-6.106;2024-01-15T17:11:36;8.90;;;2.50;;
58697;SDS011;44475;53.206;-6.106;2024-01-15T17:14:02;5.50;;;2.60;;
58697;SDS011;44475;53.206;-6.106;2024-01-15T17:16:28;6.35;;;2.80;;
58697;SDS011;44475;53.206;-6.106;2024-01-15T17:18:55;5.15;;;2.75;;
58697;SDS011;44475;53.206;-6.106;2024-01-15T17:21:21;6.00;;;2.63;;
58697;SDS011;44475;53.206;-6.106;2024-01-15T17:23:47;6.13;;;2.78;;
58697;SDS011;44475;53.206;-6.106;2024-01-15T17:26:13;5.50;;;2.67;;
58697;SDS011;44475;53.206;-6.106;2024-01-15T17:28:40;6.20;;;2.90;;
58697;SDS011;44475;53.206;-6.106;2024-01-15T17:31:06;6.75;;;3.15;;
58697;SDS011;44475;53.206;-6.106;2024-01-15T17:33:32;6.57;;;3.03;;
58697;SDS011;44475;53.206;-6.106;2024-01-15T17:35:59;6.30;;;3.17;;
58697;SDS011;44475;53.206;-6.106;2024-01-15T17:38:25;4.97;;;3.30;;
58697;SDS011;44475;53.206;-6.106;2024-01-15T17:40:53;8.77;;;3.45;;
58697;SDS011;44475;53.206;-6.106;2024-01-15T17:43:19;6.22;;;3.35;;
58697;SDS011;44475;53.206;-6.106;2024-01-15T17:45:46;7.80;;;3.28;;
58697;SDS011;44475;53.206;-6.106;2024-01-15T17:48:12;5.32;;;3.28;;
58697;SDS011;44475;53.206;-6.106;2024-01-15T17:50:39;6.68;;;3.20;;
58697;SDS011;44475;53.206;-6.106;2024-01-15T17:53:07;6.53;;;3.05;;
58697;SDS011;44475;53.206;-6.106;2024-01-15T17:55:35;5.18;;;3.00;;
58697;SDS011;44475;53.206;-6.106;2024-01-15T17:58:02;5.97;;;3.00;;
58697;SDS011;44475;53.206;-6.106;2024-01-15T18:00:28;7.57;;;3.20;;
58697;SDS011;44475;53.206;-6.106;2024-01-15T18:02:54;4.80;;;2.85;;
58697;SDS011;44475;53.206;-6.106;2024-01-15T18:05:21;4.72;;;2.92;;
58697;SDS011;44475;53.206;-6.106;2024-01-15T18:07:47;6.10;;;3.00;;
58697;SDS011;44475;53.206;-6.106;2024-01-15T18:10:14;5.22;;;3.00;;
58697;SDS011;44475;53.206;-6.106;2024-01-15T18:12:40;5.43;;;3.10;;
58697;SDS011;44475;53.206;-6.106;2024-01-15T18:15:06;6.03;;;3.20;;
58697;SDS011;44475;53.206;-6.106;2024-01-15T18:17:33;5.75;;;2.88;;
58697;SDS011;44475;53.206;-6.106;2024-01-15T18:20:03;8.13;;;3.30;;
58697;SDS011;44475;53.206;-6.106;2024-01-15T18:22:30;7.88;;;3.08;;
58697;SDS011;44475;53.206;-6.106;2024-01-15T18:24:56;6.93;;;2.88;;
58697;SDS011;44475;53.206;-6.106;2024-01-15T18:27:22;5.00;;;2.65;;
58697;SDS011;44475;53.206;-6.106;2024-01-15T18:29:49;7.18;;;3.10;;
58697;SDS011;44475;53.206;-6.106;2024-01-15T18:32:16;11.65;;;3.30;;
58697;SDS011;44475;53.206;-6.106;2024-01-15T18:34:42;9.32;;;2.90;;
58697;SDS011;44475;53.206;-6.106;2024-01-15T18:37:08;5.47;;;2.92;;
58697;SDS011;44475;53.206;-6.106;2024-01-15T18:39:34;6.43;;;2.85;;
58697;SDS011;44475;53.206;-6.106;2024-01-15T18:42:01;8.82;;;2.88;;
58697;SDS011;44475;53.206;-6.106;2024-01-15T18:44:27;8.55;;;3.00;;
58697;SDS011;44475;53.206;-6.106;2024-01-15T18:46:54;7.45;;;2.90;;
58697;SDS011;44475;53.206;-6.106;2024-01-15T18:49:21;5.70;;;3.10;;
58697;SDS011;44475;53.206;-6.106;2024-01-15T18:51:48;7.03;;;3.00;;
58697;SDS011;44475;53.206;-6.106;2024-01-15T18:54:18;5.35;;;3.10;;
58697;SDS011;44475;53.206;-6.106;2024-01-15T18:56:45;6.93;;;3.08;;
58697;SDS011;44475;53.206;-6.106;2024-01-15T18:59:11;14.60;;;3.15;;
58697;SDS011;44475;53.206;-6.106;2024-01-15T19:01:37;24.55;;;3.75;;
58697;SDS011;44475;53.206;-6.106;2024-01-15T19:04:04;10.93;;;3.30;;
58697;SDS011;44475;53.206;-6.106;2024-01-15T19:06:32;6.40;;;3.20;;
58697;SDS011;44475;53.206;-6.106;2024-01-15T19:09:07;12.30;;;3.10;;
58697;SDS011;44475;53.206;-6.106;2024-01-15T19:11:38;7.75;;;3.33;;
58697;SDS011;44475;53.206;-6.106;2024-01-15T19:14:10;7.78;;;3.10;;
58697;SDS011;44475;53.206;-6.106;2024-01-15T19:16:37;8.02;;;3.13;;
58697;SDS011;44475;53.206;-6.106;2024-01-15T19:19:03;17.48;;;3.90;;
58697;SDS011;44475;53.206;-6.106;2024-01-15T19:21:30;12.77;;;4.50;;
58697;SDS011;44475;53.206;-6.106;2024-01-15T19:23:58;13.93;;;3.50;;
58697;SDS011;44475;53.206;-6.106;2024-01-15T19:26:24;9.15;;;3.63;;
58697;SDS011;44475;53.206;-6.106;2024-01-15T19:28:51;16.63;;;5.55;;
58697;SDS011;44475;53.206;-6.106;2024-01-15T19:31:17;7.32;;;3.45;;
58697;SDS011;44475;53.206;-6.106;2024-01-15T19:33:44;8.30;;;3.50;;
58697;SDS011;44475;53.206;-6.106;2024-01-15T19:36:23;7.85;;;3.65;;
58697;SDS011;44475;53.206;-6.106;2024-01-15T19:38:51;9.77;;;3.70;;
58697;SDS011;44475;53.206;-6.106;2024-01-15T19:41:18;20.85;;;4.13;;
58697;SDS011;44475;53.206;-6.106;2024-01-15T19:43:46;10.10;;;3.60;;
58697;SDS011;44475;53.206;-6.106;2024-01-15T19:46:12;6.10;;;3.40;;
58697;SDS011;44475;53.206;-6.106;2024-01-15T19:48:39;12.85;;;3.55;;
58697;SDS011;44475;53.206;-6.106;2024-01-15T19:51:06;9.73;;;3.83;;
58697;SDS011;44475;53.206;-6.106;2024-01-15T19:53:32;8.15;;;3.67;;
58697;SDS011;44475;53.206;-6.106;2024-01-15T19:55:58;7.70;;;3.60;;
58697;SDS011;44475;53.206;-6.106;2024-01-15T19:58:25;10.35;;;4.18;;
58697;SDS011;44475;53.206;-6.106;2024-01-15T20:00:51;9.63;;;3.47;;
58697;SDS011;44475;53.206;-6.106;2024-01-15T20:03:17;8.10;;;3.65;;
58697;SDS011;44475;53.206;-6.106;2024-01-15T20:05:44;7.88;;;3.55;;
58697;SDS011;44475;53.206;-6.106;2024-01-15T20:08:10;8.23;;;3.50;;
58697;SDS011;44475;53.206;-6.106;2024-01-15T20:10:36;6.30;;;3.70;;
58697;SDS011;44475;53.206;-6.106;2024-01-15T20:13:04;7.57;;;3.63;;
58697;SDS011;44475;53.206;-6.106;2024-01-15T20:15:30;6.50;;;3.65;;
58697;SDS011;44475;53.206;-6.106;2024-01-15T20:17:59;5.32;;;3.45;;
58697;SDS011;44475;53.206;-6.106;2024-01-15T20:20:26;8.05;;;3.45;;
58697;SDS011;44475;53.206;-6.106;2024-01-15T20:22:52;7.28;;;3.38;;
58697;SDS011;44475;53.206;-6.106;2024-01-15T20:25:18;7.95;;;3.45;;
58697;SDS011;44475;53.206;-6.106;2024-01-15T20:27:45;6.78;;;3.58;;
58697;SDS011;44475;53.206;-6.106;2024-01-15T20:30:11;13.73;;;3.90;;
58697;SDS011;44475;53.206;-6.106;2024-01-15T20:32:38;7.43;;;3.42;;
58697;SDS011;44475;53.206;-6.106;2024-01-15T20:35:04;8.55;;;3.45;;
58697;SDS011;44475;53.206;-6.106;2024-01-15T20:37:31;6.78;;;3.40;;
58697;SDS011;44475;53.206;-6.106;2024-01-15T20:39:57;6.63;;;3.22;;
58697;SDS011;44475;53.206;-6.106;2024-01-15T20:42:24;10.63;;;3.35;;
58697;SDS011;44475;53.206;-6.106;2024-01-15T20:44:51;6.07;;;3.60;;
58697;SDS011;44475;53.206;-6.106;2024-01-15T20:47:19;8.75;;;3.67;;
58697;SDS011;44475;53.206;-6.106;2024-01-15T20:49:45;10.23;;;4.90;;
58697;SDS011;44475;53.206;-6.106;2024-01-15T20:52:13;11.05;;;3.47;;
58697;SDS011;44475;53.206;-6.106;2024-01-15T20:54:39;8.48;;;3.65;;
58697;SDS011;44475;53.206;-6.106;2024-01-15T20:57:05;11.70;;;4.28;;
58697;SDS011;44475;53.206;-6.106;2024-01-15T20:59:31;7.95;;;3.83;;
58697;SDS011;44475;53.206;-6.106;2024-01-15T21:01:58;12.55;;;3.78;;
58697;SDS011;44475;53.206;-6.106;2024-01-15T21:04:25;7.78;;;3.70;;
58697;SDS011;44475;53.206;-6.106;2024-01-15T21:06:52;6.25;;;3.85;;
58697;SDS011;44475;53.206;-6.106;2024-01-15T21:09:21;8.02;;;4.40;;
58697;SDS011;44475;53.206;-6.106;2024-01-15T21:11:47;9.30;;;4.18;;
58697;SDS011;44475;53.206;-6.106;2024-01-15T21:14:13;8.23;;;4.53;;
58697;SDS011;44475;53.206;-6.106;2024-01-15T21:16:43;8.00;;;4.43;;
58697;SDS011;44475;53.206;-6.106;2024-01-15T21:19:11;11.93;;;4.65;;
58697;SDS011;44475;53.206;-6.106;2024-01-15T21:21:38;7.80;;;4.47;;
58697;SDS011;44475;53.206;-6.106;2024-01-15T21:24:04;8.65;;;5.32;;
58697;SDS011;44475;53.206;-6.106;2024-01-15T21:26:32;10.63;;;5.45;;
58697;SDS011;44475;53.206;-6.106;2024-01-15T21:28:59;14.30;;;6.78;;
58697;SDS011;44475;53.206;-6.106;2024-01-15T21:31:25;14.10;;;6.35;;
58697;SDS011;44475;53.206;-6.106;2024-01-15T21:33:51;11.73;;;5.95;;
58697;SDS011;44475;53.206;-6.106;2024-01-15T21:36:18;10.35;;;6.15;;
58697;SDS011;44475;53.206;-6.106;2024-01-15T21:38:45;13.60;;;6.25;;
58697;SDS011;44475;53.206;-6.106;2024-01-15T21:41:11;15.82;;;6.18;;
58697;SDS011;44475;53.206;-6.106;2024-01-15T21:43:38;11.82;;;5.95;;
58697;SDS011;44475;53.206;-6.106;2024-01-15T21:46:06;14.82;;;6.38;;
58697;SDS011;44475;53.206;-6.106;2024-01-15T21:48:32;13.57;;;6.47;;
58697;SDS011;44475;53.206;-6.106;2024-01-15T21:50:59;10.60;;;5.85;;
58697;SDS011;44475;53.206;-6.106;2024-01-15T21:53:25;10.40;;;5.85;;
58697;SDS011;44475;53.206;-6.106;2024-01-15T21:55:51;17.08;;;5.93;;
58697;SDS011;44475;53.206;-6.106;2024-01-15T21:58:18;10.73;;;5.88;;
58697;SDS011;44475;53.206;-6.106;2024-01-15T22:00:44;16.50;;;6.18;;
58697;SDS011;44475;53.206;-6.106;2024-01-15T22:03:10;14.18;;;5.70;;
58697;SDS011;44475;53.206;-6.106;2024-01-15T22:05:37;18.25;;;5.80;;
58697;SDS011;44475;53.206;-6.106;2024-01-15T22:08:04;16.85;;;6.20;;
58697;SDS011;44475;53.206;-6.106;2024-01-15T22:10:30;12.65;;;6.00;;
58697;SDS011;44475;53.206;-6.106;2024-01-15T22:12:56;16.30;;;5.30;;
58697;SDS011;44475;53.206;-6.106;2024-01-15T22:15:23;15.13;;;5.22;;
58697;SDS011;44475;53.206;-6.106;2024-01-15T22:17:49;10.68;;;5.13;;
58697;SDS011;44475;53.206;-6.106;2024-01-15T22:20:15;17.52;;;5.18;;
58697;SDS011;44475;53.206;-6.106;2024-01-15T22:22:42;12.65;;;4.93;;
58697;SDS011;44475;53.206;-6.106;2024-01-15T22:25:08;16.15;;;5.20;;
58697;SDS011;44475;53.206;-6.106;2024-01-15T22:27:34;12.57;;;5.28;;
58697;SDS011;44475;53.206;-6.106;2024-01-15T22:30:01;9.13;;;5.03;;
58697;SDS011;44475;53.206;-6.106;2024-01-15T22:32:27;18.40;;;5.40;;
58697;SDS011;44475;53.206;-6.106;2024-01-15T22:34:54;13.57;;;4.95;;
58697;SDS011;44475;53.206;-6.106;2024-01-15T22:37:20;12.90;;;5.13;;
58697;SDS011;44475;53.206;-6.106;2024-01-15T22:39:47;9.95;;;5.00;;
58697;SDS011;44475;53.206;-6.106;2024-01-15T22:42:13;17.15;;;4.80;;
58697;SDS011;44475;53.206;-6.106;2024-01-15T22:44:39;13.73;;;4.90;;
58697;SDS011;44475;53.206;-6.106;2024-01-15T22:47:06;8.75;;;4.68;;
58697;SDS011;44475;53.206;-6.106;2024-01-15T22:49:32;11.35;;;4.72;;
58697;SDS011;44475;53.206;-6.106;2024-01-15T22:51:58;10.15;;;4.47;;
58697;SDS011;44475;53.206;-6.106;2024-01-15T22:54:25;10.27;;;5.30;;
58697;SDS011;44475;53.206;-6.106;2024-01-15T22:56:51;11.57;;;4.35;;
58697;SDS011;44475;53.206;-6.106;2024-01-15T22:59:17;12.88;;;4.18;;
58697;SDS011;44475;53.206;-6.106;2024-01-15T23:01:45;14.25;;;4.10;;
58697;SDS011;44475;53.206;-6.106;2024-01-15T23:04:14;8.52;;;4.55;;
58697;SDS011;44475;53.206;-6.106;2024-01-15T23:06:42;14.02;;;4.30;;
58697;SDS011;44475;53.206;-6.106;2024-01-15T23:09:08;8.90;;;4.35;;
58697;SDS011;44475;53.206;-6.106;2024-01-15T23:11:35;10.15;;;4.22;;
58697;SDS011;44475;53.206;-6.106;2024-01-15T23:14:01;8.93;;;4.40;;
58697;SDS011;44475;53.206;-6.106;2024-01-15T23:16:28;8.77;;;4.05;;
58697;SDS011;44475;53.206;-6.106;2024-01-15T23:18:56;7.68;;;4.30;;
58697;SDS011;44475;53.206;-6.106;2024-01-15T23:21:22;9.05;;;4.10;;
58697;SDS011;44475;53.206;-6.106;2024-01-15T23:23:48;7.55;;;3.42;;
58697;SDS011;44475;53.206;-6.106;2024-01-15T23:26:17;8.98;;;3.97;;
58697;SDS011;44475;53.206;-6.106;2024-01-15T23:28:44;6.68;;;3.75;;
58697;SDS011;44475;53.206;-6.106;2024-01-15T23:31:10;9.25;;;3.58;;
58697;SDS011;44475;53.206;-6.106;2024-01-15T23:33:36;10.95;;;4.05;;
58697;SDS011;44475;53.206;-6.106;2024-01-15T23:36:05;10.43;;;3.90;;
58697;SDS011;44475;53.206;-6.106;2024-01-15T23:38:32;9.43;;;3.97;;
58697;SDS011;44475;53.206;-6.106;2024-01-15T23:41:00;7.25;;;3.85;;
58697;SDS011;44475;53.206;-6.106;2024-01-15T23:43:29;14.48;;;4.28;;
58697;SDS011;44475;53.206;-6.106;2024-01-15T23:45:56;15.15;;;4.40;;
58697;SDS011;44475;53.206;-6.106;2024-01-15T23:48:22;14.70;;;4.10;;
58697;SDS011;44475;53.206;-6.106;2024-01-15T23:50:48;19.30;;;4.30;;
58697;SDS011;44475;53.206;-6.106;2024-01-15T23:53:14;29.08;;;5.30;;
58697;SDS011;44475;53.206;-6.106;2024-01-15T23:55:41;12.38;;;3.88;;
58697;SDS011;44475;53.206;-6.106;2024-01-15T23:58:08;12.77;;;4.00;;
